Prentice, WI (54556)

6:35 AM CDT on September 01, 2015 (GMT -0500)
APRSWXNET | | Change Station
CLOSE
Current Station
Personal Weather Station
Location: Phillips, WI
Elevation: 1541 ft
Nearby Weather Stations

Elev 1541 ft 45.64 °N, 90.34 °W | Updated 20 minutes ago

Overcast
Overcast
70 °F
Feels Like 70 °F
N
0
Wind Variable Wind from North
Gusts 3.0 mph

Today
High -- | Low -- °F
--% Chance of Precip.
Yesterday
High -- | Low -- °F
Precip. -- in
6:22 AM 7:39 PM
Waning Gibbous, 89% visible
Pressure 29.97 in
Visibility 4.0 miles
Clouds Overcast 400 ft
Dew Point 68 °F
Humidity 94%
Rainfall in
Snow Depth Not available.
UV 0 out of 12
Pollen 10.40 out of 12
Air Quality Not available.
Flu Activity Not available.
METAR KPBH 011115Z AUTO 19003KT 4SM BR OVC004 21/21 A2997 RMK AO2 T02070207
Pressure 29.97 in
Visibility 4.0 miles
Clouds Overcast 400 ft
Dew Point 68 °F
Humidity 94%
Rainfall in
Snow Depth Not available.
UV 0 out of 12
Pollen 10.40 out of 12
Air Quality Not available.
Flu Activity Not available.
METAR KPBH 011115Z AUTO 19003KT 4SM BR OVC004 21/21 A2997 RMK AO2 T02070207

10-Day Weather Forecast

×

Almanac

Astronomy

Sep. 01, 2015 Rise Set
Actual Time
Civil Twilight
Nautical Twilight
Astronomical Twilight
Moon
Length of Visible Light
Length of Day
Tomorrow will be .
, % of the Moon is Illuminated

Today's Extremes

State Highs State Lows

Community

WunderPhotos

Upload Photos

1,851,501 photos uploaded!

WunderBlogs® & News

Nearby

Air Quality

  Air Quality AQ Index Pollutant
Not available.

Snow Depth

Station Depth Elevation

Earthquake Activity

City Distance Mag. Time & Date
Minimum magnitude displayed is 2.5.

Coastal Water Temperatures

Place Temperature

Stations

Nearby Weather Stations

Station Location Temp. Windchill Dew Point Humidity Wind Precip. Elev Updated Type